Time;durP1;ratioP1;P1;durP2;ratioP2;P2;SDS_P1;SDS_P2;PMS_P1;PMS_P2;Temp;Humidity;BMP_temperature;BMP_pressure;BME280_temperature;BME280_humidity;BME280_pressure;Samples;Min_cycle;Max_cycle;Signal;HPM_P1;HPM_P2
2023/05/29 00:02:06;;;;;;;5.73;3.33;;;;;;;;;;5053924;28;20198;-85
2023/05/29 00:04:33;;;;;;;4.50;3.20;;;;;;;;;;5052598;28;20210;-85
2023/05/29 00:07:00;;;;;;;4.47;3.03;;;;;;;;;;5053842;28;20226;-86
2023/05/29 00:09:28;;;;;;;5.23;3.40;;;;;;;;;;5048404;28;20221;-86
2023/05/29 00:11:55;;;;;;;4.50;3.40;;;;;;;;;;5048676;28;20218;-85
2023/05/29 00:14:23;;;;;;;3.20;2.90;;;;;;;;;;5043096;28;20205;-85
2023/05/29 00:16:52;;;;;;;4.67;3.67;;;;;;;;;;5053522;28;20280;-86
2023/05/29 00:19:19;;;;;;;5.13;3.73;;;;;;;;;;5054071;28;20217;-85
2023/05/29 00:21:47;;;;;;;3.93;3.37;;;;;;;;;;5059111;28;20225;-85
2023/05/29 00:24:14;;;;;;;3.47;3.17;;;;;;;;;;5055085;28;20206;-86
2023/05/29 00:26:41;;;;;;;4.07;3.23;;;;;;;;;;5046314;28;20237;-86
2023/05/29 00:29:09;;;;;;;5.47;3.27;;;;;;;;;;5055474;28;20206;-86
2023/05/29 00:31:36;;;;;;;4.00;3.30;;;;;;;;;;5053828;28;20636;-86
2023/05/29 00:34:05;;;;;;;8.40;3.70;;;;;;;;;;5054311;28;20256;-86
2023/05/29 00:36:32;;;;;;;3.50;3.10;;;;;;;;;;5043440;28;20241;-86
2023/05/29 00:38:59;;;;;;;6.27;3.37;;;;;;;;;;5047658;28;20690;-86
2023/05/29 00:41:26;;;;;;;3.57;3.03;;;;;;;;;;5053344;28;20221;-86
2023/05/29 00:43:53;;;;;;;3.50;3.10;;;;;;;;;;5053966;28;20209;-85
2023/05/29 00:46:21;;;;;;;3.73;3.33;;;;;;;;;;5052850;28;20232;-85
2023/05/29 00:48:48;;;;;;;5.17;3.40;;;;;;;;;;5046710;28;20210;-86
2023/05/29 00:51:17;;;;;;;4.17;3.33;;;;;;;;;;5053772;28;20264;-86
2023/05/29 00:53:45;;;;;;;4.40;2.80;;;;;;;;;;5046191;28;20209;-86
2023/05/29 00:56:12;;;;;;;3.67;3.00;;;;;;;;;;5045678;28;20234;-85
2023/05/29 00:58:39;;;;;;;3.83;3.17;;;;;;;;;;5057211;28;20210;-84
2023/05/29 01:01:06;;;;;;;5.13;3.43;;;;;;;;;;5049122;28;20228;-86
2023/05/29 01:03:35;;;;;;;4.07;3.23;;;;;;;;;;5044372;28;20206;-86
2023/05/29 01:06:03;;;;;;;4.53;3.60;;;;;;;;;;5052681;28;20233;-86
2023/05/29 01:08:33;;;;;;;4.87;3.67;;;;;;;;;;5045964;28;20214;-86
2023/05/29 01:11:06;;;;;;;5.57;3.83;;;;;;;;;;5053619;28;20226;-86
2023/05/29 01:13:36;;;;;;;5.97;3.17;;;;;;;;;;5045387;28;20203;-86
2023/05/29 01:16:06;;;;;;;4.77;3.20;;;;;;;;;;5052924;28;20242;-86
2023/05/29 01:18:41;;;;;;;3.43;3.13;;;;;;;;;;5043472;28;20214;-86
2023/05/29 01:21:11;;;;;;;3.63;3.33;;;;;;;;;;5048299;28;20221;-85
2023/05/29 01:23:53;;;;;;;6.10;3.50;;;;;;;;;;5053734;28;20260;-85
2023/05/29 01:26:26;;;;;;;4.87;3.00;;;;;;;;;;5051446;28;20226;-87
2023/05/29 01:28:57;;;;;;;5.43;3.40;;;;;;;;;;5053685;28;20572;-87
2023/05/29 01:31:26;;;;;;;4.43;3.30;;;;;;;;;;5052373;28;20222;-86
2023/05/29 01:33:54;;;;;;;4.33;3.17;;;;;;;;;;5046707;28;20206;-86
2023/05/29 01:36:21;;;;;;;5.17;3.03;;;;;;;;;;5052978;28;20226;-86
2023/05/29 01:38:48;;;;;;;3.60;3.27;;;;;;;;;;5049710;28;20202;-86
2023/05/29 01:41:16;;;;;;;4.53;3.50;;;;;;;;;;5048804;28;20225;-86
2023/05/29 01:43:44;;;;;;;3.90;3.10;;;;;;;;;;5053332;28;20564;-86
2023/05/29 01:46:12;;;;;;;5.40;3.27;;;;;;;;;;5052762;28;20228;-87
2023/05/29 01:48:40;;;;;;;6.30;3.97;;;;;;;;;;5053643;28;20217;-86
2023/05/29 01:51:07;;;;;;;4.30;3.70;;;;;;;;;;5055566;28;20228;-86
2023/05/29 01:53:34;;;;;;;4.37;3.30;;;;;;;;;;5055163;28;20216;-86
2023/05/29 01:56:01;;;;;;;7.73;4.83;;;;;;;;;;5044661;28;20250;-86
2023/05/29 01:58:29;;;;;;;3.97;3.43;;;;;;;;;;5054590;28;20234;-86
2023/05/29 02:00:56;;;;;;;7.07;3.50;;;;;;;;;;5056422;28;20234;-86
2023/05/29 02:03:28;;;;;;;5.13;3.67;;;;;;;;;;5048911;28;20191;-86
2023/05/29 02:05:56;;;;;;;4.87;3.80;;;;;;;;;;5056653;28;20238;-85
2023/05/29 02:08:23;;;;;;;5.57;3.40;;;;;;;;;;5056541;28;20244;-85
2023/05/29 02:10:50;;;;;;;6.93;3.70;;;;;;;;;;5047549;28;20230;-84
2023/05/29 02:13:18;;;;;;;4.30;3.83;;;;;;;;;;5055778;28;20285;-85
2023/05/29 02:15:45;;;;;;;4.17;3.63;;;;;;;;;;5054440;28;20226;-85
2023/05/29 02:18:12;;;;;;;4.03;3.27;;;;;;;;;;5040776;28;20218;-85
2023/05/29 02:20:41;;;;;;;5.87;3.33;;;;;;;;;;5047091;28;20241;-85
2023/05/29 02:23:09;;;;;;;4.20;3.47;;;;;;;;;;5055636;28;20234;-85
2023/05/29 02:25:37;;;;;;;3.80;3.30;;;;;;;;;;5047036;28;20234;-85
2023/05/29 02:28:04;;;;;;;4.87;3.10;;;;;;;;;;5047463;28;20251;-85
2023/05/29 02:30:31;;;;;;;5.63;3.20;;;;;;;;;;5047333;28;20231;-86
2023/05/29 02:32:59;;;;;;;4.63;3.43;;;;;;;;;;5050874;28;20207;-85
2023/05/29 02:35:26;;;;;;;4.17;3.53;;;;;;;;;;5051468;28;20229;-85
2023/05/29 02:37:54;;;;;;;4.20;3.50;;;;;;;;;;5040293;28;20225;-85
2023/05/29 02:40:21;;;;;;;4.57;3.40;;;;;;;;;;5054964;28;20253;-86
2023/05/29 02:42:49;;;;;;;3.90;3.60;;;;;;;;;;5052224;28;20215;-86
2023/05/29 02:45:16;;;;;;;4.70;3.40;;;;;;;;;;5050913;28;20237;-86
2023/05/29 02:47:43;;;;;;;4.00;3.27;;;;;;;;;;5038872;28;20771;-85
2023/05/29 02:50:11;;;;;;;5.20;3.60;;;;;;;;;;5047588;28;20233;-85
2023/05/29 02:52:38;;;;;;;5.37;3.77;;;;;;;;;;5052646;28;20230;-85
2023/05/29 02:55:06;;;;;;;4.87;3.57;;;;;;;;;;5045722;28;20226;-84
2023/05/29 02:57:33;;;;;;;6.03;3.57;;;;;;;;;;5044880;28;20227;-85
2023/05/29 03:00:01;;;;;;;4.10;3.40;;;;;;;;;;5038874;28;20236;-85
2023/05/29 03:02:28;;;;;;;5.53;3.50;;;;;;;;;;5054127;28;20209;-85
2023/05/29 03:04:55;;;;;;;3.70;3.40;;;;;;;;;;5054560;28;20225;-84
2023/05/29 03:07:22;;;;;;;3.63;3.33;;;;;;;;;;5054589;28;20233;-84
2023/05/29 03:09:50;;;;;;;5.53;3.43;;;;;;;;;;5053846;28;20221;-84
2023/05/29 03:12:19;;;;;;;6.13;3.67;;;;;;;;;;5047244;28;20716;-85
2023/05/29 03:14:46;;;;;;;4.70;3.70;;;;;;;;;;5033914;28;20720;-84
2023/05/29 03:17:14;;;;;;;4.43;3.50;;;;;;;;;;5042855;28;20226;-84
2023/05/29 03:19:41;;;;;;;4.20;3.77;;;;;;;;;;5044974;28;20214;-84
2023/05/29 03:22:08;;;;;;;8.23;3.97;;;;;;;;;;5049188;28;20202;-85
2023/05/29 03:24:35;;;;;;;4.60;3.80;;;;;;;;;;5052326;28;20217;-84
2023/05/29 03:27:04;;;;;;;3.70;3.23;;;;;;;;;;5054440;28;20226;-84
2023/05/29 03:29:33;;;;;;;4.43;3.33;;;;;;;;;;5054590;28;20214;-84
2023/05/29 03:32:00;;;;;;;4.33;3.60;;;;;;;;;;5054499;28;20225;-85
2023/05/29 03:34:27;;;;;;;3.80;3.50;;;;;;;;;;5053233;28;20210;-85
2023/05/29 03:36:54;;;;;;;3.93;3.30;;;;;;;;;;5040161;28;20218;-85
2023/05/29 03:39:21;;;;;;;7.13;3.80;;;;;;;;;;5054858;28;20268;-85
2023/05/29 03:41:49;;;;;;;5.17;3.53;;;;;;;;;;5046425;28;20233;-85
2023/05/29 03:44:16;;;;;;;5.17;3.63;;;;;;;;;;5055047;28;20264;-85
2023/05/29 03:46:45;;;;;;;4.17;3.60;;;;;;;;;;5053629;28;20242;-85
2023/05/29 03:49:12;;;;;;;4.70;3.80;;;;;;;;;;5054723;28;20209;-84
2023/05/29 03:51:39;;;;;;;5.67;3.80;;;;;;;;;;5053768;28;20256;-84
2023/05/29 03:54:06;;;;;;;3.93;3.50;;;;;;;;;;5054161;28;20214;-84
2023/05/29 03:56:35;;;;;;;3.40;3.10;;;;;;;;;;5053857;28;20229;-85
2023/05/29 03:59:02;;;;;;;5.67;3.40;;;;;;;;;;5054750;28;20206;-84
2023/05/29 04:01:29;;;;;;;5.93;3.80;;;;;;;;;;5053741;28;20225;-84
2023/05/29 04:03:57;;;;;;;4.43;3.43;;;;;;;;;;5045248;28;20206;-84
2023/05/29 04:06:24;;;;;;;5.07;3.37;;;;;;;;;;5045002;28;20257;-83
2023/05/29 04:08:52;;;;;;;5.80;4.00;;;;;;;;;;5049846;28;20207;-85
2023/05/29 04:11:20;;;;;;;4.43;3.73;;;;;;;;;;5048276;28;20225;-84
2023/05/29 04:13:47;;;;;;;5.13;3.83;;;;;;;;;;5051251;28;20579;-85
2023/05/29 04:16:15;;;;;;;4.70;3.20;;;;;;;;;;5048006;28;20260;-84
2023/05/29 04:18:42;;;;;;;5.23;3.53;;;;;;;;;;5051983;28;20205;-85
2023/05/29 04:21:11;;;;;;;6.80;4.70;;;;;;;;;;5047285;28;20233;-85
2023/05/29 04:23:38;;;;;;;4.37;3.57;;;;;;;;;;5054114;28;20214;-85
2023/05/29 04:26:05;;;;;;;4.10;3.50;;;;;;;;;;5044735;28;20232;-85
2023/05/29 04:28:32;;;;;;;5.17;4.57;;;;;;;;;;5044865;28;20693;-85
2023/05/29 04:31:00;;;;;;;7.53;4.03;;;;;;;;;;5052933;28;20699;-84
2023/05/29 04:33:28;;;;;;;6.70;3.80;;;;;;;;;;5053863;28;20320;-84
2023/05/29 04:35:55;;;;;;;5.77;3.70;;;;;;;;;;5053370;28;20232;-85
2023/05/29 04:38:24;;;;;;;6.33;3.97;;;;;;;;;;5052552;28;20217;-85
2023/05/29 04:40:52;;;;;;;4.83;4.43;;;;;;;;;;5051790;28;20366;-84
2023/05/29 04:43:19;;;;;;;5.70;4.43;;;;;;;;;;5053151;28;20267;-84
2023/05/29 04:45:48;;;;;;;7.13;4.63;;;;;;;;;;5052847;28;20270;-84
2023/05/29 04:48:16;;;;;;;4.67;3.97;;;;;;;;;;5053090;28;20320;-84
2023/05/29 04:50:44;;;;;;;7.23;4.40;;;;;;;;;;5052034;28;20230;-84
2023/05/29 04:53:11;;;;;;;9.20;4.57;;;;;;;;;;5052501;28;20282;-84
2023/05/29 04:55:40;;;;;;;4.97;3.90;;;;;;;;;;5044666;28;20237;-84
2023/05/29 04:58:07;;;;;;;7.90;4.50;;;;;;;;;;5053683;28;20229;-83
2023/05/29 05:00:34;;;;;;;7.47;4.40;;;;;;;;;;5043858;28;20241;-85
2023/05/29 05:03:02;;;;;;;5.67;4.37;;;;;;;;;;5052597;28;20228;-84
2023/05/29 05:05:29;;;;;;;7.30;4.37;;;;;;;;;;5051955;28;20234;-86
2023/05/29 05:07:56;;;;;;;6.03;4.87;;;;;;;;;;5053054;28;20309;-84
2023/05/29 05:10:23;;;;;;;5.80;4.83;;;;;;;;;;5045776;28;20260;-85
2023/05/29 05:12:52;;;;;;;6.27;4.67;;;;;;;;;;5051857;28;20232;-85
2023/05/29 05:15:19;;;;;;;6.37;4.27;;;;;;;;;;5052281;28;20318;-85
2023/05/29 05:17:46;;;;;;;6.60;4.50;;;;;;;;;;5045192;28;20234;-85
2023/05/29 05:20:13;;;;;;;5.40;4.53;;;;;;;;;;5053150;28;20230;-85
2023/05/29 05:22:40;;;;;;;6.03;4.47;;;;;;;;;;5052192;28;20271;-85
2023/05/29 05:25:08;;;;;;;6.90;4.90;;;;;;;;;;5034066;28;20715;-85
2023/05/29 05:27:35;;;;;;;7.17;4.37;;;;;;;;;;5053243;28;20785;-86
2023/05/29 05:30:03;;;;;;;6.97;4.60;;;;;;;;;;5048479;28;20252;-85
2023/05/29 05:32:30;;;;;;;6.57;4.10;;;;;;;;;;5049230;28;20722;-85
2023/05/29 05:34:57;;;;;;;7.57;3.93;;;;;;;;;;5057257;28;20589;-86
2023/05/29 05:37:25;;;;;;;8.43;4.77;;;;;;;;;;5050662;28;20231;-86
2023/05/29 05:39:53;;;;;;;7.03;4.30;;;;;;;;;;5056249;28;20704;-87
2023/05/29 05:42:20;;;;;;;6.97;4.40;;;;;;;;;;5058148;28;20217;-86
2023/05/29 05:44:47;;;;;;;6.10;4.40;;;;;;;;;;5057465;28;20252;-86
2023/05/29 05:47:16;;;;;;;10.77;4.67;;;;;;;;;;5057663;28;20237;-86
2023/05/29 05:49:43;;;;;;;5.80;3.93;;;;;;;;;;5057429;28;20241;-86
2023/05/29 05:52:10;;;;;;;4.50;3.67;;;;;;;;;;5056851;28;20261;-85
2023/05/29 05:54:37;;;;;;;5.33;4.17;;;;;;;;;;5055275;28;20217;-85
2023/05/29 05:57:06;;;;;;;5.40;4.07;;;;;;;;;;5056304;28;20222;-85
2023/05/29 05:59:33;;;;;;;6.27;3.90;;;;;;;;;;5056579;28;20213;-86
2023/05/29 06:02:00;;;;;;;4.20;3.37;;;;;;;;;;5056285;28;20202;-86
2023/05/29 06:04:28;;;;;;;7.47;3.40;;;;;;;;;;5056467;28;20267;-86
2023/05/29 06:06:55;;;;;;;4.80;3.40;;;;;;;;;;5054032;28;20241;-85
2023/05/29 06:09:23;;;;;;;5.67;3.00;;;;;;;;;;5042809;28;20202;-85
2023/05/29 06:11:50;;;;;;;5.50;3.63;;;;;;;;;;5056567;28;20240;-86
2023/05/29 06:14:17;;;;;;;6.43;3.40;;;;;;;;;;5056667;28;20209;-86
2023/05/29 06:16:44;;;;;;;8.03;3.43;;;;;;;;;;5055688;28;20230;-86
2023/05/29 06:19:11;;;;;;;4.80;3.30;;;;;;;;;;5056350;28;20208;-86
2023/05/29 06:21:40;;;;;;;3.47;3.03;;;;;;;;;;5046729;28;20238;-88
2023/05/29 06:24:07;;;;;;;5.13;3.60;;;;;;;;;;5044888;28;20241;-85
2023/05/29 06:26:35;;;;;;;3.17;2.87;;;;;;;;;;5052199;28;20234;-86
2023/05/29 06:29:02;;;;;;;3.50;2.83;;;;;;;;;;5048580;28;20217;-86
2023/05/29 06:31:29;;;;;;;4.33;3.40;;;;;;;;;;5040232;28;20230;-86
2023/05/29 06:33:56;;;;;;;6.10;3.53;;;;;;;;;;5051404;28;20253;-85
2023/05/29 06:36:23;;;;;;;4.93;3.13;;;;;;;;;;5053940;28;20276;-86
2023/05/29 06:38:52;;;;;;;5.07;2.77;;;;;;;;;;5055881;28;20210;-85
2023/05/29 06:41:19;;;;;;;5.57;3.23;;;;;;;;;;5056073;28;20226;-84
2023/05/29 06:43:46;;;;;;;6.53;3.10;;;;;;;;;;5055418;28;20202;-85
2023/05/29 06:46:13;;;;;;;4.57;3.13;;;;;;;;;;5054528;28;20250;-85
2023/05/29 06:48:41;;;;;;;4.47;2.90;;;;;;;;;;5054842;28;20229;-86
2023/05/29 06:51:09;;;;;;;4.10;3.00;;;;;;;;;;5046844;28;20229;-84
2023/05/29 06:53:36;;;;;;;4.53;3.20;;;;;;;;;;5054721;28;20262;-85
2023/05/29 06:56:05;;;;;;;3.78;2.72;;;;;;;;;;5054702;28;20276;-84
2023/05/29 06:58:32;;;;;;;4.45;2.80;;;;;;;;;;5048431;28;20222;-87
2023/05/29 07:00:59;;;;;;;4.47;2.95;;;;;;;;;;5046937;28;20234;-89
2023/05/29 07:03:27;;;;;;;6.70;2.75;;;;;;;;;;5056088;28;20216;-86
2023/05/29 07:05:54;;;;;;;3.70;2.75;;;;;;;;;;5054221;28;20230;-86
2023/05/29 07:08:21;;;;;;;4.43;2.85;;;;;;;;;;5054606;28;20591;-86
2023/05/29 07:10:49;;;;;;;4.78;3.10;;;;;;;;;;5054862;28;20237;-86
2023/05/29 07:13:18;;;;;;;5.80;3.33;;;;;;;;;;5054648;28;20222;-84
2023/05/29 07:15:45;;;;;;;2.95;2.65;;;;;;;;;;5053552;28;20234;-85
2023/05/29 07:18:12;;;;;;;3.30;2.78;;;;;;;;;;5054317;28;20234;-84
2023/05/29 07:20:40;;;;;;;4.50;2.88;;;;;;;;;;5053913;28;20237;-87
2023/05/29 07:23:07;;;;;;;3.92;2.97;;;;;;;;;;5043524;28;20202;-86
2023/05/29 07:25:34;;;;;;;4.10;2.75;;;;;;;;;;5045284;28;20233;-86
2023/05/29 07:28:01;;;;;;;9.30;2.95;;;;;;;;;;5049515;28;20601;-84
2023/05/29 07:30:30;;;;;;;4.15;2.42;;;;;;;;;;5045564;28;20232;-85
2023/05/29 07:32:57;;;;;;;4.20;3.20;;;;;;;;;;5052537;28;20317;-85
2023/05/29 07:35:24;;;;;;;3.85;2.60;;;;;;;;;;5050781;28;20233;-85
2023/05/29 07:37:52;;;;;;;3.25;2.80;;;;;;;;;;5053916;28;20232;-85
2023/05/29 07:40:19;;;;;;;4.30;2.90;;;;;;;;;;5054482;28;20275;-86
2023/05/29 07:42:46;;;;;;;3.00;2.67;;;;;;;;;;5045659;28;20671;-87
2023/05/29 07:45:13;;;;;;;6.90;2.65;;;;;;;;;;5052512;28;20230;-86
2023/05/29 07:47:41;;;;;;;3.70;2.35;;;;;;;;;;5052892;28;20257;-85
2023/05/29 07:50:10;;;;;;;4.05;2.65;;;;;;;;;;5054022;28;20233;-86
2023/05/29 07:52:37;;;;;;;3.72;2.75;;;;;;;;;;5046837;28;20325;-85
2023/05/29 07:55:04;;;;;;;3.38;2.70;;;;;;;;;;5042405;28;20230;-86
2023/05/29 07:57:31;;;;;;;3.38;2.80;;;;;;;;;;5054566;28;20229;-86
2023/05/29 07:59:58;;;;;;;3.25;2.67;;;;;;;;;;5054221;28;20229;-91
2023/05/29 08:02:26;;;;;;;4.30;2.95;;;;;;;;;;5056499;28;20737;-87
2023/05/29 08:04:54;;;;;;;6.47;2.70;;;;;;;;;;5056257;28;20237;-87
2023/05/29 08:07:21;;;;;;;4.30;2.80;;;;;;;;;;5054705;28;20221;-88
2023/05/29 08:09:49;;;;;;;3.88;2.50;;;;;;;;;;5056600;28;20237;-86
2023/05/29 08:12:16;;;;;;;3.42;2.72;;;;;;;;;;5053535;28;20218;-86
2023/05/29 08:14:43;;;;;;;2.97;2.60;;;;;;;;;;5055081;28;20248;-87
2023/05/29 08:17:10;;;;;;;4.00;2.75;;;;;;;;;;5037154;28;20714;-86
2023/05/29 08:19:37;;;;;;;3.10;2.78;;;;;;;;;;5053913;28;20210;-88
2023/05/29 08:22:06;;;;;;;3.03;2.38;;;;;;;;;;5042692;28;20210;-86
2023/05/29 08:24:33;;;;;;;4.07;2.85;;;;;;;;;;5043376;28;20209;-85
2023/05/29 08:27:00;;;;;;;3.03;2.65;;;;;;;;;;5044420;28;20233;-87
2023/05/29 08:29:27;;;;;;;2.97;2.25;;;;;;;;;;5045296;28;20194;-88
2023/05/29 08:31:54;;;;;;;2.70;2.47;;;;;;;;;;5049187;28;20186;-92
2023/05/29 08:34:21;;;;;;;3.25;2.35;;;;;;;;;;5057022;28;20222;-88
2023/05/29 08:36:51;;;;;;;3.63;2.70;;;;;;;;;;5053134;28;20232;-88
2023/05/29 08:39:19;;;;;;;3.08;2.35;;;;;;;;;;5048554;28;20240;-87
2023/05/29 08:41:51;;;;;;;4.40;2.58;;;;;;;;;;5039206;28;20237;-87
2023/05/29 08:44:20;;;;;;;4.35;2.80;;;;;;;;;;5048873;28;20244;-87
2023/05/29 08:46:48;;;;;;;3.88;2.45;;;;;;;;;;5051341;28;20253;-86
2023/05/29 08:49:17;;;;;;;3.63;2.80;;;;;;;;;;5051671;28;20209;-87
2023/05/29 08:51:46;;;;;;;5.90;2.97;;;;;;;;;;5054736;28;20240;-85
2023/05/29 08:54:13;;;;;;;3.58;2.20;;;;;;;;;;5040905;28;20227;-87
2023/05/29 08:56:42;;;;;;;2.60;2.35;;;;;;;;;;5056149;28;20242;-90
2023/05/29 08:59:09;;;;;;;4.53;2.90;;;;;;;;;;5042576;28;20211;-86
2023/05/29 09:01:38;;;;;;;4.30;2.47;;;;;;;;;;5040858;28;20259;-85
2023/05/29 09:04:05;;;;;;;4.40;2.60;;;;;;;;;;5045308;28;20236;-86
2023/05/29 09:06:33;;;;;;;2.63;2.42;;;;;;;;;;5047716;28;20700;-87
2023/05/29 09:09:00;;;;;;;2.53;2.33;;;;;;;;;;5052470;28;20209;-86
2023/05/29 09:11:27;;;;;;;4.35;2.60;;;;;;;;;;5042693;28;20230;-86
2023/05/29 09:13:57;;;;;;;3.60;2.45;;;;;;;;;;5043473;28;20222;-86
2023/05/29 09:16:24;;;;;;;3.83;2.58;;;;;;;;;;5048741;28;20257;-87
2023/05/29 09:18:51;;;;;;;2.88;2.60;;;;;;;;;;5038828;28;20289;-89
2023/05/29 09:21:27;;;;;;;3.08;2.70;;;;;;;;;;5046417;28;20611;-86
2023/05/29 09:23:54;;;;;;;4.20;2.47;;;;;;;;;;5045937;28;20331;-86
2023/05/29 09:26:22;;;;;;;4.00;2.95;;;;;;;;;;5042458;28;20237;-86
2023/05/29 09:28:49;;;;;;;3.00;2.30;;;;;;;;;;5034941;28;20708;-87
2023/05/29 09:31:20;;;;;;;6.97;2.67;;;;;;;;;;5043139;28;20237;-90
2023/05/29 09:33:50;;;;;;;4.07;2.50;;;;;;;;;;5036359;28;20229;-87
2023/05/29 09:36:24;;;;;;;2.85;2.60;;;;;;;;;;5039946;28;20225;-86
2023/05/29 09:38:52;;;;;;;3.25;2.38;;;;;;;;;;5048594;28;20202;-89
2023/05/29 09:41:23;;;;;;;3.20;2.75;;;;;;;;;;5051155;28;20243;-86
2023/05/29 09:43:50;;;;;;;4.18;2.80;;;;;;;;;;5044118;28;20207;-86
2023/05/29 09:46:20;;;;;;;2.97;2.40;;;;;;;;;;5045175;28;20309;-86
2023/05/29 09:48:47;;;;;;;4.93;2.83;;;;;;;;;;5045919;28;20214;-85
2023/05/29 09:51:21;;;;;;;3.97;2.53;;;;;;;;;;5042147;28;20281;-85
2023/05/29 09:53:50;;;;;;;5.13;2.80;;;;;;;;;;5051400;28;20225;-87
2023/05/29 09:56:17;;;;;;;2.72;2.35;;;;;;;;;;5054011;28;20593;-86
2023/05/29 09:58:45;;;;;;;5.70;2.67;;;;;;;;;;5055359;28;20209;-86
2023/05/29 10:01:13;;;;;;;2.83;2.35;;;;;;;;;;5036652;28;20226;-87
2023/05/29 10:03:42;;;;;;;2.75;2.53;;;;;;;;;;5038488;28;20669;-89
2023/05/29 10:06:11;;;;;;;3.40;2.42;;;;;;;;;;5042385;28;20231;-87
2023/05/29 10:08:39;;;;;;;3.65;2.80;;;;;;;;;;5041982;28;20270;-88
2023/05/29 10:11:09;;;;;;;4.13;2.45;;;;;;;;;;5057092;28;20226;-87
2023/05/29 10:13:37;;;;;;;2.60;2.40;;;;;;;;;;5049826;28;20218;-86
2023/05/29 10:16:05;;;;;;;2.80;2.05;;;;;;;;;;5043007;28;20226;-86
2023/05/29 10:18:33;;;;;;;3.63;2.67;;;;;;;;;;5043251;28;20661;-87
2023/05/29 10:21:03;;;;;;;4.40;2.42;;;;;;;;;;5048196;28;20254;-87
2023/05/29 10:23:31;;;;;;;2.72;2.22;;;;;;;;;;5068904;28;20202;-86
2023/05/29 10:26:04;;;;;;;3.58;2.55;;;;;;;;;;5055944;28;20230;-87
2023/05/29 10:28:31;;;;;;;3.33;2.65;;;;;;;;;;5036324;28;20217;-86
2023/05/29 10:31:03;;;;;;;3.28;2.40;;;;;;;;;;5052503;28;20240;-89
2023/05/29 10:33:38;;;;;;;3.83;2.50;;;;;;;;;;5044861;28;20226;-88
2023/05/29 10:36:11;;;;;;;4.43;2.33;;;;;;;;;;5038529;28;20237;-88
2023/05/29 10:38:39;;;;;;;6.68;3.00;;;;;;;;;;5057575;28;20210;-89
2023/05/29 10:41:25;;;;;;;4.20;2.50;;;;;;;;;;5057941;28;20242;-88
2023/05/29 10:43:53;;;;;;;2.80;2.35;;;;;;;;;;5049636;28;20248;-90
2023/05/29 10:46:20;;;;;;;3.00;2.42;;;;;;;;;;5045623;28;20226;-88
2023/05/29 10:48:50;;;;;;;3.72;2.38;;;;;;;;;;5055059;28;20198;-88
2023/05/29 10:51:27;;;;;;;2.83;2.60;;;;;;;;;;5045604;28;20650;-87
2023/05/29 10:53:54;;;;;;;3.90;2.15;;;;;;;;;;5036296;28;20226;-87
2023/05/29 10:56:26;;;;;;;3.10;2.47;;;;;;;;;;5036240;28;20227;-88
2023/05/29 10:58:57;;;;;;;2.40;2.15;;;;;;;;;;5036161;28;20211;-88
2023/05/29 11:01:25;;;;;;;3.95;2.45;;;;;;;;;;5043016;28;20230;-88
2023/05/29 11:03:53;;;;;;;7.63;2.65;;;;;;;;;;5058017;28;20197;-88
2023/05/29 11:06:21;;;;;;;2.85;2.60;;;;;;;;;;5049359;28;20268;-88
2023/05/29 11:08:54;;;;;;;3.03;2.50;;;;;;;;;;5041508;28;20302;-88
2023/05/29 11:11:32;;;;;;;3.00;2.70;;;;;;;;;;5049593;28;20241;-87
2023/05/29 11:14:04;;;;;;;3.08;2.78;;;;;;;;;;5056354;28;20232;-89
2023/05/29 11:16:37;;;;;;;3.45;2.40;;;;;;;;;;5043100;28;20235;-88
2023/05/29 11:19:05;;;;;;;2.63;2.42;;;;;;;;;;5046143;28;20652;-88
2023/05/29 11:21:35;;;;;;;2.67;2.42;;;;;;;;;;5042701;28;20624;-88
2023/05/29 11:24:04;;;;;;;3.67;2.55;;;;;;;;;;5051860;28;20206;-87
2023/05/29 11:26:32;;;;;;;2.50;2.30;;;;;;;;;;5041000;28;20234;-85
2023/05/29 11:29:00;;;;;;;4.72;2.03;;;;;;;;;;5053847;28;20206;-88
2023/05/29 11:31:30;;;;;;;2.65;2.45;;;;;;;;;;5048305;28;20237;-89
2023/05/29 11:34:00;;;;;;;2.63;2.42;;;;;;;;;;5057588;28;20220;-91
2023/05/29 11:36:28;;;;;;;3.78;2.70;;;;;;;;;;5057518;28;20237;-87
2023/05/29 11:38:55;;;;;;;5.05;2.25;;;;;;;;;;5057742;28;20255;-88
2023/05/29 11:41:25;;;;;;;4.18;2.35;;;;;;;;;;5045917;28;20309;-90
2023/05/29 11:43:59;;;;;;;4.65;2.45;;;;;;;;;;5040205;28;20203;-87
2023/05/29 11:46:28;;;;;;;4.25;2.65;;;;;;;;;;5045860;28;20288;-87
2023/05/29 11:48:55;;;;;;;2.63;2.40;;;;;;;;;;5055675;28;20214;-86
2023/05/29 11:51:22;;;;;;;3.55;2.15;;;;;;;;;;5058322;28;20233;-87
2023/05/29 11:53:52;;;;;;;2.38;2.13;;;;;;;;;;5058884;28;20660;-88
2023/05/29 11:56:20;;;;;;;2.17;1.98;;;;;;;;;;5054648;28;20602;-86
2023/05/29 11:58:50;;;;;;;2.88;2.35;;;;;;;;;;5044512;28;20212;-89
2023/05/29 12:01:19;;;;;;;4.28;2.60;;;;;;;;;;5058236;28;20292;-87
2023/05/29 12:03:46;;;;;;;3.50;2.38;;;;;;;;;;5051188;28;20202;-86
2023/05/29 12:06:13;;;;;;;6.10;2.53;;;;;;;;;;5056325;28;20591;-86
2023/05/29 12:08:41;;;;;;;4.90;2.40;;;;;;;;;;5051358;28;20206;-86
2023/05/29 12:11:08;;;;;;;3.25;2.38;;;;;;;;;;5052739;28;20356;-88
2023/05/29 12:13:35;;;;;;;3.60;2.30;;;;;;;;;;5051008;28;20206;-89
2023/05/29 12:16:05;;;;;;;2.83;2.20;;;;;;;;;;5047997;28;20257;-87
2023/05/29 12:18:33;;;;;;;2.78;2.58;;;;;;;;;;5044768;28;20207;-88
2023/05/29 12:21:01;;;;;;;3.20;2.55;;;;;;;;;;5054318;28;20218;-88
2023/05/29 12:23:29;;;;;;;2.55;2.25;;;;;;;;;;5045516;28;20194;-89
2023/05/29 12:25:56;;;;;;;5.72;2.70;;;;;;;;;;5044086;28;20233;-86
2023/05/29 12:28:24;;;;;;;5.68;2.33;;;;;;;;;;5047127;28;20232;-87
2023/05/29 12:30:51;;;;;;;3.47;2.42;;;;;;;;;;5045760;28;20237;-87
2023/05/29 12:33:30;;;;;;;3.47;2.83;;;;;;;;;;5036413;28;20209;-88
2023/05/29 12:36:02;;;;;;;4.20;2.45;;;;;;;;;;5051719;28;20229;-89
2023/05/29 12:38:30;;;;;;;3.42;2.50;;;;;;;;;;5034628;28;20226;-88
2023/05/29 12:40:57;;;;;;;2.88;2.30;;;;;;;;;;5053991;28;20237;-87
2023/05/29 12:43:24;;;;;;;2.78;2.50;;;;;;;;;;5043232;28;20203;-87
2023/05/29 12:45:56;;;;;;;4.63;2.25;;;;;;;;;;5036187;28;20308;-87
2023/05/29 12:48:27;;;;;;;5.07;2.40;;;;;;;;;;5040311;28;20598;-87
2023/05/29 12:50:57;;;;;;;4.15;2.33;;;;;;;;;;5053370;28;20230;-87
2023/05/29 12:53:30;;;;;;;2.80;2.50;;;;;;;;;;5038415;28;20258;-87
2023/05/29 12:55:57;;;;;;;3.30;2.25;;;;;;;;;;5046360;28;20669;-87
2023/05/29 12:58:24;;;;;;;4.85;2.47;;;;;;;;;;5043124;28;20218;-87
2023/05/29 13:00:55;;;;;;;2.90;2.47;;;;;;;;;;5036175;28;20234;-90
2023/05/29 13:03:23;;;;;;;2.38;2.17;;;;;;;;;;5045020;28;20207;-89
2023/05/29 13:05:51;;;;;;;6.57;2.35;;;;;;;;;;5043894;28;20304;-88
2023/05/29 13:08:19;;;;;;;2.92;2.40;;;;;;;;;;5044469;28;20365;-88
2023/05/29 13:10:46;;;;;;;2.58;2.38;;;;;;;;;;5049265;28;20234;-88
2023/05/29 13:13:13;;;;;;;4.00;2.40;;;;;;;;;;5036757;28;20218;-86
2023/05/29 13:15:41;;;;;;;3.80;2.80;;;;;;;;;;5042225;28;20234;-87
2023/05/29 13:18:08;;;;;;;3.03;2.22;;;;;;;;;;5052856;28;20230;-89
2023/05/29 13:20:35;;;;;;;3.28;2.30;;;;;;;;;;5042384;28;20245;-91
2023/05/29 13:23:02;;;;;;;4.70;2.75;;;;;;;;;;5042431;28;20205;-86
2023/05/29 13:25:30;;;;;;;2.60;2.33;;;;;;;;;;5046364;28;20237;-88
2023/05/29 13:27:57;;;;;;;2.97;2.63;;;;;;;;;;5038768;28;20223;-87
2023/05/29 13:30:24;;;;;;;3.63;2.80;;;;;;;;;;5034146;28;20243;-88
2023/05/29 13:32:52;;;;;;;5.25;3.25;;;;;;;;;;5049934;28;20213;-86
2023/05/29 13:35:19;;;;;;;3.20;2.40;;;;;;;;;;5041701;28;20238;-88
2023/05/29 13:37:47;;;;;;;2.65;2.45;;;;;;;;;;5042388;28;20261;-88
2023/05/29 13:40:14;;;;;;;3.53;2.60;;;;;;;;;;5035816;28;20699;-89
2023/05/29 13:42:43;;;;;;;3.17;2.35;;;;;;;;;;5040983;28;20273;-87
2023/05/29 13:45:11;;;;;;;3.35;2.30;;;;;;;;;;5035027;28;20226;-86
2023/05/29 13:47:38;;;;;;;4.72;2.60;;;;;;;;;;5057829;28;20283;-87
2023/05/29 13:50:06;;;;;;;3.00;2.60;;;;;;;;;;5049772;28;20229;-86
2023/05/29 13:52:34;;;;;;;3.88;2.58;;;;;;;;;;5049584;28;20209;-87
2023/05/29 13:55:06;;;;;;;3.35;2.80;;;;;;;;;;5049465;28;20249;-88
2023/05/29 13:57:33;;;;;;;4.80;2.78;;;;;;;;;;5043560;28;20750;-87
2023/05/29 14:00:01;;;;;;;2.78;2.55;;;;;;;;;;5056945;28;20734;-87
2023/05/29 14:02:29;;;;;;;3.53;2.80;;;;;;;;;;5049388;28;20664;-87
2023/05/29 14:04:56;;;;;;;4.43;2.70;;;;;;;;;;5049567;28;20727;-88
2023/05/29 14:07:24;;;;;;;3.88;3.28;;;;;;;;;;5048897;28;20236;-88
2023/05/29 14:09:51;;;;;;;3.15;2.60;;;;;;;;;;5049162;28;20225;-89
2023/05/29 14:12:18;;;;;;;3.00;2.60;;;;;;;;;;5039480;28;20545;-89
2023/05/29 14:14:45;;;;;;;3.42;2.40;;;;;;;;;;5043090;28;20965;-87
2023/05/29 14:17:15;;;;;;;3.65;2.63;;;;;;;;;;5039755;28;20234;-87
2023/05/29 14:19:45;;;;;;;3.60;2.47;;;;;;;;;;5050992;28;20252;-87
2023/05/29 14:22:12;;;;;;;4.38;2.67;;;;;;;;;;5048010;28;20203;-87
2023/05/29 14:24:39;;;;;;;3.30;2.50;;;;;;;;;;5037171;28;20581;-88
2023/05/29 14:27:07;;;;;;;4.45;2.80;;;;;;;;;;5046858;28;20223;-89
2023/05/29 14:29:34;;;;;;;3.70;2.70;;;;;;;;;;5037535;28;20258;-87
2023/05/29 14:32:01;;;;;;;4.03;2.90;;;;;;;;;;5038495;28;20230;-88
2023/05/29 14:34:29;;;;;;;4.28;2.80;;;;;;;;;;5044489;28;20616;-88
2023/05/29 14:36:56;;;;;;;2.95;2.60;;;;;;;;;;5045223;28;20552;-87
2023/05/29 14:39:24;;;;;;;3.35;2.47;;;;;;;;;;5047137;28;20222;-87
2023/05/29 14:41:51;;;;;;;3.85;3.17;;;;;;;;;;5057892;28;20210;-87
2023/05/29 14:44:18;;;;;;;5.00;2.53;;;;;;;;;;5050036;28;20199;-88
2023/05/29 14:46:45;;;;;;;5.90;2.97;;;;;;;;;;5038362;28;20241;-88
2023/05/29 14:49:12;;;;;;;3.10;2.80;;;;;;;;;;5047756;28;20206;-90